sensor_id;sensor_type;location;lat;lon;timestamp;P1;durP1;ratioP1;P2;durP2;ratioP2
39102;SDS011;24847;48.218;16.414;2023-12-20T00:04:15;16.50;;;13.48;;
39102;SDS011;24847;48.218;16.414;2023-12-20T00:09:17;15.65;;;13.55;;
39102;SDS011;24847;48.218;16.414;2023-12-20T00:14:21;15.70;;;13.50;;
39102;SDS011;24847;48.218;16.414;2023-12-20T00:19:23;15.82;;;13.57;;
39102;SDS011;24847;48.218;16.414;2023-12-20T00:24:26;15.68;;;13.63;;
39102;SDS011;24847;48.218;16.414;2023-12-20T00:29:29;17.75;;;14.13;;
39102;SDS011;24847;48.218;16.414;2023-12-20T00:34:32;16.30;;;13.40;;
39102;SDS011;24847;48.218;16.414;2023-12-20T00:39:34;16.70;;;13.50;;
39102;SDS011;24847;48.218;16.414;2023-12-20T00:44:37;16.50;;;13.70;;
39102;SDS011;24847;48.218;16.414;2023-12-20T00:49:40;15.77;;;13.52;;
39102;SDS011;24847;48.218;16.414;2023-12-20T00:54:42;15.75;;;13.15;;
39102;SDS011;24847;48.218;16.414;2023-12-20T00:59:46;18.30;;;14.90;;
39102;SDS011;24847;48.218;16.414;2023-12-20T01:04:48;17.70;;;14.13;;
39102;SDS011;24847;48.218;16.414;2023-12-20T01:09:50;18.08;;;15.02;;
39102;SDS011;24847;48.218;16.414;2023-12-20T01:14:56;17.98;;;15.30;;
39102;SDS011;24847;48.218;16.414;2023-12-20T01:19:58;17.90;;;15.10;;
39102;SDS011;24847;48.218;16.414;2023-12-20T01:25:00;19.20;;;14.80;;
39102;SDS011;24847;48.218;16.414;2023-12-20T01:30:05;20.73;;;16.70;;
39102;SDS011;24847;48.218;16.414;2023-12-20T01:35:09;19.77;;;15.52;;
39102;SDS011;24847;48.218;16.414;2023-12-20T01:40:13;18.05;;;15.75;;
39102;SDS011;24847;48.218;16.414;2023-12-20T01:45:16;18.38;;;15.32;;
39102;SDS011;24847;48.218;16.414;2023-12-20T01:50:19;18.65;;;15.63;;
39102;SDS011;24847;48.218;16.414;2023-12-20T01:55:22;20.10;;;16.02;;
39102;SDS011;24847;48.218;16.414;2023-12-20T02:00:26;21.13;;;16.42;;
39102;SDS011;24847;48.218;16.414;2023-12-20T02:05:29;18.13;;;15.27;;
39102;SDS011;24847;48.218;16.414;2023-12-20T02:10:31;18.38;;;15.88;;
39102;SDS011;24847;48.218;16.414;2023-12-20T02:15:35;17.90;;;15.50;;
39102;SDS011;24847;48.218;16.414;2023-12-20T02:20:38;18.35;;;15.98;;
39102;SDS011;24847;48.218;16.414;2023-12-20T02:25:41;18.70;;;15.02;;
39102;SDS011;24847;48.218;16.414;2023-12-20T02:30:44;16.73;;;13.70;;
39102;SDS011;24847;48.218;16.414;2023-12-20T02:35:46;17.05;;;14.40;;
39102;SDS011;24847;48.218;16.414;2023-12-20T02:40:49;16.48;;;13.63;;
39102;SDS011;24847;48.218;16.414;2023-12-20T02:45:52;15.95;;;13.20;;
39102;SDS011;24847;48.218;16.414;2023-12-20T02:50:54;18.10;;;14.77;;
39102;SDS011;24847;48.218;16.414;2023-12-20T02:55:58;16.92;;;14.05;;
39102;SDS011;24847;48.218;16.414;2023-12-20T03:01:00;18.30;;;14.40;;
39102;SDS011;24847;48.218;16.414;2023-12-20T03:06:02;18.55;;;14.10;;
39102;SDS011;24847;48.218;16.414;2023-12-20T03:11:06;16.65;;;14.13;;
39102;SDS011;24847;48.218;16.414;2023-12-20T03:16:09;18.23;;;15.18;;
39102;SDS011;24847;48.218;16.414;2023-12-20T03:21:11;19.23;;;15.23;;
39102;SDS011;24847;48.218;16.414;2023-12-20T03:26:15;20.13;;;15.05;;
39102;SDS011;24847;48.218;16.414;2023-12-20T03:31:19;21.27;;;16.70;;
39102;SDS011;24847;48.218;16.414;2023-12-20T03:36:22;21.98;;;16.75;;
39102;SDS011;24847;48.218;16.414;2023-12-20T03:41:25;22.02;;;16.40;;
39102;SDS011;24847;48.218;16.414;2023-12-20T03:46:28;23.30;;;18.05;;
39102;SDS011;24847;48.218;16.414;2023-12-20T03:51:30;21.27;;;16.45;;
39102;SDS011;24847;48.218;16.414;2023-12-20T03:56:33;19.95;;;16.10;;
39102;SDS011;24847;48.218;16.414;2023-12-20T04:01:36;20.27;;;17.00;;
39102;SDS011;24847;48.218;16.414;2023-12-20T04:06:38;20.25;;;16.38;;
39102;SDS011;24847;48.218;16.414;2023-12-20T04:11:42;20.77;;;16.70;;
39102;SDS011;24847;48.218;16.414;2023-12-20T04:16:45;19.98;;;15.77;;
39102;SDS011;24847;48.218;16.414;2023-12-20T04:21:47;17.45;;;14.73;;
39102;SDS011;24847;48.218;16.414;2023-12-20T04:26:51;32.70;;;22.63;;
39102;SDS011;24847;48.218;16.414;2023-12-20T04:31:53;64.70;;;38.08;;
39102;SDS011;24847;48.218;16.414;2023-12-20T04:36:55;21.60;;;16.17;;
39102;SDS011;24847;48.218;16.414;2023-12-20T04:41:59;15.75;;;14.02;;
39102;SDS011;24847;48.218;16.414;2023-12-20T04:47:01;16.33;;;12.82;;
39102;SDS011;24847;48.218;16.414;2023-12-20T04:52:04;17.48;;;12.80;;
39102;SDS011;24847;48.218;16.414;2023-12-20T04:57:08;14.00;;;12.45;;
39102;SDS011;24847;48.218;16.414;2023-12-20T05:02:10;14.60;;;12.75;;
39102;SDS011;24847;48.218;16.414;2023-12-20T05:07:12;14.75;;;12.70;;
39102;SDS011;24847;48.218;16.414;2023-12-20T05:12:16;15.20;;;12.25;;
39102;SDS011;24847;48.218;16.414;2023-12-20T05:17:18;14.70;;;11.90;;
39102;SDS011;24847;48.218;16.414;2023-12-20T05:22:21;15.10;;;11.73;;
39102;SDS011;24847;48.218;16.414;2023-12-20T05:27:25;15.25;;;12.65;;
39102;SDS011;24847;48.218;16.414;2023-12-20T05:32:27;12.80;;;11.50;;
39102;SDS011;24847;48.218;16.414;2023-12-20T05:37:29;12.82;;;10.70;;
39102;SDS011;24847;48.218;16.414;2023-12-20T05:42:33;15.38;;;11.93;;
39102;SDS011;24847;48.218;16.414;2023-12-20T05:47:44;14.43;;;11.77;;
39102;SDS011;24847;48.218;16.414;2023-12-20T05:52:51;15.57;;;12.20;;
39102;SDS011;24847;48.218;16.414;2023-12-20T05:57:55;15.10;;;11.85;;
39102;SDS011;24847;48.218;16.414;2023-12-20T06:02:57;13.23;;;11.05;;
39102;SDS011;24847;48.218;16.414;2023-12-20T06:07:59;14.65;;;11.32;;
39102;SDS011;24847;48.218;16.414;2023-12-20T06:13:04;13.05;;;11.18;;
39102;SDS011;24847;48.218;16.414;2023-12-20T06:18:06;13.52;;;11.68;;
39102;SDS011;24847;48.218;16.414;2023-12-20T06:23:09;13.23;;;11.55;;
39102;SDS011;24847;48.218;16.414;2023-12-20T06:28:12;15.63;;;10.93;;
39102;SDS011;24847;48.218;16.414;2023-12-20T06:33:15;10.40;;;7.43;;
39102;SDS011;24847;48.218;16.414;2023-12-20T06:38:18;6.60;;;4.90;;
39102;SDS011;24847;48.218;16.414;2023-12-20T06:43:23;5.50;;;3.50;;
39102;SDS011;24847;48.218;16.414;2023-12-20T06:48:25;6.63;;;2.75;;
39102;SDS011;24847;48.218;16.414;2023-12-20T06:53:27;3.08;;;2.17;;
39102;SDS011;24847;48.218;16.414;2023-12-20T06:58:31;2.72;;;1.95;;
39102;SDS011;24847;48.218;16.414;2023-12-20T07:03:33;2.35;;;1.80;;
39102;SDS011;24847;48.218;16.414;2023-12-20T07:08:35;2.40;;;1.90;;
39102;SDS011;24847;48.218;16.414;2023-12-20T07:13:39;1.77;;;1.55;;
39102;SDS011;24847;48.218;16.414;2023-12-20T07:18:41;2.25;;;1.60;;
39102;SDS011;24847;48.218;16.414;2023-12-20T07:23:44;4.28;;;1.88;;
39102;SDS011;24847;48.218;16.414;2023-12-20T07:28:47;3.67;;;2.15;;
39102;SDS011;24847;48.218;16.414;2023-12-20T07:33:50;3.25;;;2.53;;
39102;SDS011;24847;48.218;16.414;2023-12-20T07:38:52;4.32;;;2.03;;
39102;SDS011;24847;48.218;16.414;2023-12-20T07:43:56;3.42;;;2.13;;
39102;SDS011;24847;48.218;16.414;2023-12-20T07:48:59;2.80;;;1.80;;
39102;SDS011;24847;48.218;16.414;2023-12-20T07:54:01;2.70;;;1.90;;
39102;SDS011;24847;48.218;16.414;2023-12-20T07:59:09;3.42;;;2.30;;
39102;SDS011;24847;48.218;16.414;2023-12-20T08:04:11;4.18;;;2.50;;
39102;SDS011;24847;48.218;16.414;2023-12-20T08:09:14;3.70;;;2.40;;
39102;SDS011;24847;48.218;16.414;2023-12-20T08:14:17;3.28;;;2.22;;
39102;SDS011;24847;48.218;16.414;2023-12-20T08:19:20;2.20;;;1.92;;
39102;SDS011;24847;48.218;16.414;2023-12-20T08:24:22;2.53;;;2.17;;
39102;SDS011;24847;48.218;16.414;2023-12-20T08:29:25;4.90;;;2.25;;
39102;SDS011;24847;48.218;16.414;2023-12-20T08:34:28;3.05;;;2.38;;
39102;SDS011;24847;48.218;16.414;2023-12-20T08:39:30;2.83;;;2.20;;
39102;SDS011;24847;48.218;16.414;2023-12-20T08:44:35;2.85;;;2.22;;
39102;SDS011;24847;48.218;16.414;2023-12-20T08:49:37;3.47;;;2.20;;
39102;SDS011;24847;48.218;16.414;2023-12-20T08:54:39;2.30;;;2.10;;
39102;SDS011;24847;48.218;16.414;2023-12-20T08:59:43;2.30;;;1.92;;
39102;SDS011;24847;48.218;16.414;2023-12-20T09:04:45;3.17;;;2.10;;
39102;SDS011;24847;48.218;16.414;2023-12-20T09:09:47;2.38;;;2.00;;
39102;SDS011;24847;48.218;16.414;2023-12-20T09:14:51;3.05;;;2.10;;
39102;SDS011;24847;48.218;16.414;2023-12-20T09:19:54;3.08;;;2.03;;
39102;SDS011;24847;48.218;16.414;2023-12-20T09:24:56;2.47;;;1.70;;
39102;SDS011;24847;48.218;16.414;2023-12-20T09:29:59;1.85;;;1.52;;
39102;SDS011;24847;48.218;16.414;2023-12-20T09:35:04;1.40;;;1.10;;
39102;SDS011;24847;48.218;16.414;2023-12-20T09:40:09;1.08;;;0.95;;
39102;SDS011;24847;48.218;16.414;2023-12-20T09:45:15;2.20;;;1.13;;
39102;SDS011;24847;48.218;16.414;2023-12-20T09:50:21;2.47;;;1.00;;
39102;SDS011;24847;48.218;16.414;2023-12-20T09:55:24;1.83;;;1.10;;
39102;SDS011;24847;48.218;16.414;2023-12-20T10:00:29;1.88;;;1.30;;
39102;SDS011;24847;48.218;16.414;2023-12-20T10:05:32;1.83;;;1.30;;
39102;SDS011;24847;48.218;16.414;2023-12-20T10:10:35;1.73;;;1.25;;
39102;SDS011;24847;48.218;16.414;2023-12-20T10:15:39;2.13;;;1.40;;
39102;SDS011;24847;48.218;16.414;2023-12-20T10:20:41;1.73;;;1.30;;
39102;SDS011;24847;48.218;16.414;2023-12-20T10:25:47;2.97;;;1.33;;
39102;SDS011;24847;48.218;16.414;2023-12-20T10:30:59;1.88;;;1.45;;
39102;SDS011;24847;48.218;16.414;2023-12-20T10:36:01;1.52;;;1.40;;
39102;SDS011;24847;48.218;16.414;2023-12-20T10:41:04;1.75;;;1.65;;
39102;SDS011;24847;48.218;16.414;2023-12-20T10:46:10;1.38;;;1.23;;
39102;SDS011;24847;48.218;16.414;2023-12-20T10:51:13;1.65;;;1.20;;
39102;SDS011;24847;48.218;16.414;2023-12-20T10:56:19;1.60;;;1.35;;
39102;SDS011;24847;48.218;16.414;2023-12-20T11:01:25;1.48;;;1.38;;
39102;SDS011;24847;48.218;16.414;2023-12-20T11:06:31;1.73;;;1.55;;
39102;SDS011;24847;48.218;16.414;2023-12-20T11:17:07;3.65;;;2.10;;
39102;SDS011;24847;48.218;16.414;2023-12-20T11:22:11;5.10;;;4.18;;
39102;SDS011;24847;48.218;16.414;2023-12-20T11:27:14;2.22;;;1.88;;
39102;SDS011;24847;48.218;16.414;2023-12-20T11:32:28;1.50;;;1.40;;
39102;SDS011;24847;48.218;16.414;2023-12-20T11:37:31;1.40;;;1.30;;
39102;SDS011;24847;48.218;16.414;2023-12-20T11:42:37;1.38;;;1.10;;
39102;SDS011;24847;48.218;16.414;2023-12-20T11:47:41;1.70;;;1.05;;
39102;SDS011;24847;48.218;16.414;2023-12-20T11:52:44;2.35;;;1.90;;
39102;SDS011;24847;48.218;16.414;2023-12-20T11:57:46;1.58;;;1.33;;
39102;SDS011;24847;48.218;16.414;2023-12-20T12:02:57;1.08;;;0.98;;
39102;SDS011;24847;48.218;16.414;2023-12-20T12:07:59;1.20;;;1.08;;
39102;SDS011;24847;48.218;16.414;2023-12-20T12:13:02;1.35;;;1.23;;
39102;SDS011;24847;48.218;16.414;2023-12-20T12:18:06;1.13;;;0.93;;
39102;SDS011;24847;48.218;16.414;2023-12-20T12:23:10;1.30;;;1.17;;
39102;SDS011;24847;48.218;16.414;2023-12-20T12:28:12;1.60;;;0.98;;
39102;SDS011;24847;48.218;16.414;2023-12-20T12:33:16;1.65;;;1.17;;
39102;SDS011;24847;48.218;16.414;2023-12-20T12:38:19;1.38;;;0.90;;
39102;SDS011;24847;48.218;16.414;2023-12-20T12:43:22;0.70;;;0.68;;
39102;SDS011;24847;48.218;16.414;2023-12-20T12:48:25;1.05;;;0.90;;
39102;SDS011;24847;48.218;16.414;2023-12-20T12:53:28;1.10;;;0.95;;
39102;SDS011;24847;48.218;16.414;2023-12-20T12:58:30;1.25;;;0.88;;
39102;SDS011;24847;48.218;16.414;2023-12-20T13:03:34;1.25;;;1.00;;
39102;SDS011;24847;48.218;16.414;2023-12-20T13:08:37;1.20;;;1.10;;
39102;SDS011;24847;48.218;16.414;2023-12-20T13:13:40;1.08;;;0.80;;
39102;SDS011;24847;48.218;16.414;2023-12-20T13:18:43;1.52;;;1.13;;
39102;SDS011;24847;48.218;16.414;2023-12-20T13:23:45;1.45;;;1.20;;
39102;SDS011;24847;48.218;16.414;2023-12-20T13:28:48;1.30;;;1.10;;
39102;SDS011;24847;48.218;16.414;2023-12-20T13:33:51;1.25;;;1.00;;
39102;SDS011;24847;48.218;16.414;2023-12-20T13:38:56;1.73;;;1.45;;
39102;SDS011;24847;48.218;16.414;2023-12-20T13:43:59;1.30;;;1.00;;
39102;SDS011;24847;48.218;16.414;2023-12-20T13:49:04;1.08;;;0.85;;
39102;SDS011;24847;48.218;16.414;2023-12-20T13:54:07;1.30;;;0.90;;
39102;SDS011;24847;48.218;16.414;2023-12-20T13:59:11;1.20;;;0.80;;
39102;SDS011;24847;48.218;16.414;2023-12-20T14:04:15;1.17;;;0.75;;
39102;SDS011;24847;48.218;16.414;2023-12-20T14:09:17;2.00;;;1.30;;
39102;SDS011;24847;48.218;16.414;2023-12-20T14:14:19;2.47;;;1.00;;
39102;SDS011;24847;48.218;16.414;2023-12-20T14:19:23;0.77;;;0.70;;
39102;SDS011;24847;48.218;16.414;2023-12-20T14:24:25;1.10;;;0.80;;
39102;SDS011;24847;48.218;16.414;2023-12-20T14:29:27;1.20;;;0.93;;
39102;SDS011;24847;48.218;16.414;2023-12-20T14:34:31;1.20;;;0.77;;
39102;SDS011;24847;48.218;16.414;2023-12-20T14:39:33;1.27;;;0.90;;
39102;SDS011;24847;48.218;16.414;2023-12-20T14:44:39;1.02;;;0.85;;
39102;SDS011;24847;48.218;16.414;2023-12-20T14:49:43;1.17;;;0.85;;
39102;SDS011;24847;48.218;16.414;2023-12-20T14:54:45;1.00;;;0.70;;
39102;SDS011;24847;48.218;16.414;2023-12-20T14:59:47;1.08;;;0.98;;
39102;SDS011;24847;48.218;16.414;2023-12-20T15:04:51;1.75;;;0.85;;
39102;SDS011;24847;48.218;16.414;2023-12-20T15:09:53;1.60;;;0.90;;
39102;SDS011;24847;48.218;16.414;2023-12-20T15:14:55;1.80;;;1.30;;
39102;SDS011;24847;48.218;16.414;2023-12-20T15:19:59;1.80;;;1.10;;
39102;SDS011;24847;48.218;16.414;2023-12-20T15:25:01;4.15;;;1.98;;
39102;SDS011;24847;48.218;16.414;2023-12-20T15:30:05;3.10;;;1.90;;
39102;SDS011;24847;48.218;16.414;2023-12-20T15:35:11;4.13;;;1.85;;
39102;SDS011;24847;48.218;16.414;2023-12-20T15:40:13;6.65;;;2.95;;
39102;SDS011;24847;48.218;16.414;2023-12-20T15:45:15;9.85;;;4.38;;
39102;SDS011;24847;48.218;16.414;2023-12-20T15:50:18;3.97;;;3.05;;
39102;SDS011;24847;48.218;16.414;2023-12-20T15:55:21;2.90;;;1.65;;
39102;SDS011;24847;48.218;16.414;2023-12-20T16:00:23;3.30;;;1.30;;
39102;SDS011;24847;48.218;16.414;2023-12-20T16:05:28;2.92;;;2.20;;
39102;SDS011;24847;48.218;16.414;2023-12-20T16:10:30;2.15;;;1.80;;
39102;SDS011;24847;48.218;16.414;2023-12-20T16:15:32;4.40;;;2.47;;
39102;SDS011;24847;48.218;16.414;2023-12-20T16:20:36;4.93;;;3.13;;
39102;SDS011;24847;48.218;16.414;2023-12-20T16:25:38;2.47;;;2.00;;
39102;SDS011;24847;48.218;16.414;2023-12-20T16:30:40;3.22;;;1.92;;
39102;SDS011;24847;48.218;16.414;2023-12-20T16:35:44;2.10;;;1.83;;
39102;SDS011;24847;48.218;16.414;2023-12-20T16:40:46;1.75;;;1.30;;
39102;SDS011;24847;48.218;16.414;2023-12-20T16:45:48;2.40;;;1.92;;
39102;SDS011;24847;48.218;16.414;2023-12-20T16:50:52;5.28;;;3.05;;
39102;SDS011;24847;48.218;16.414;2023-12-20T16:55:54;4.75;;;2.75;;
39102;SDS011;24847;48.218;16.414;2023-12-20T17:00:57;3.30;;;2.33;;
39102;SDS011;24847;48.218;16.414;2023-12-20T17:06:00;3.53;;;2.30;;
39102;SDS011;24847;48.218;16.414;2023-12-20T17:11:04;4.47;;;2.83;;
39102;SDS011;24847;48.218;16.414;2023-12-20T17:16:06;3.65;;;2.40;;
39102;SDS011;24847;48.218;16.414;2023-12-20T17:21:09;3.58;;;2.25;;
39102;SDS011;24847;48.218;16.414;2023-12-20T17:26:12;3.38;;;2.30;;
39102;SDS011;24847;48.218;16.414;2023-12-20T17:31:14;2.25;;;1.77;;
39102;SDS011;24847;48.218;16.414;2023-12-20T17:36:18;2.88;;;1.50;;
39102;SDS011;24847;48.218;16.414;2023-12-20T17:41:20;1.50;;;1.10;;
39102;SDS011;24847;48.218;16.414;2023-12-20T17:46:23;7.90;;;4.45;;
39102;SDS011;24847;48.218;16.414;2023-12-20T17:51:26;5.32;;;3.50;;
39102;SDS011;24847;48.218;16.414;2023-12-20T17:56:29;6.15;;;3.72;;
39102;SDS011;24847;48.218;16.414;2023-12-20T18:01:31;3.38;;;2.10;;
39102;SDS011;24847;48.218;16.414;2023-12-20T18:06:36;3.38;;;2.35;;
39102;SDS011;24847;48.218;16.414;2023-12-20T18:11:40;4.00;;;2.97;;
39102;SDS011;24847;48.218;16.414;2023-12-20T18:16:43;2.55;;;2.00;;
39102;SDS011;24847;48.218;16.414;2023-12-20T18:21:48;2.33;;;1.73;;
39102;SDS011;24847;48.218;16.414;2023-12-20T18:26:52;2.63;;;1.55;;
39102;SDS011;24847;48.218;16.414;2023-12-20T18:31:56;1.60;;;1.38;;
39102;SDS011;24847;48.218;16.414;2023-12-20T18:37:02;1.83;;;1.52;;
39102;SDS011;24847;48.218;16.414;2023-12-20T18:42:10;1.80;;;1.40;;
39102;SDS011;24847;48.218;16.414;2023-12-20T18:47:14;2.03;;;1.30;;
39102;SDS011;24847;48.218;16.414;2023-12-20T18:52:20;2.67;;;1.30;;
39102;SDS011;24847;48.218;16.414;2023-12-20T18:57:24;1.98;;;1.30;;
39102;SDS011;24847;48.218;16.414;2023-12-20T19:02:29;1.80;;;1.38;;
39102;SDS011;24847;48.218;16.414;2023-12-20T19:07:36;2.33;;;1.40;;
39102;SDS011;24847;48.218;16.414;2023-12-20T19:12:40;1.90;;;1.20;;
39102;SDS011;24847;48.218;16.414;2023-12-20T19:17:45;2.03;;;1.10;;
39102;SDS011;24847;48.218;16.414;2023-12-20T19:22:51;1.85;;;1.02;;
39102;SDS011;24847;48.218;16.414;2023-12-20T19:27:56;1.33;;;1.00;;
39102;SDS011;24847;48.218;16.414;2023-12-20T19:33:00;1.58;;;0.90;;
39102;SDS011;24847;48.218;16.414;2023-12-20T19:38:07;1.83;;;1.08;;
39102;SDS011;24847;48.218;16.414;2023-12-20T19:43:12;1.80;;;1.42;;
39102;SDS011;24847;48.218;16.414;2023-12-20T19:48:17;1.95;;;1.10;;
39102;SDS011;24847;48.218;16.414;2023-12-20T19:53:24;1.60;;;1.02;;
39102;SDS011;24847;48.218;16.414;2023-12-20T19:58:29;1.95;;;1.00;;
39102;SDS011;24847;48.218;16.414;2023-12-20T20:03:34;2.17;;;1.10;;
39102;SDS011;24847;48.218;16.414;2023-12-20T20:08:41;1.92;;;1.13;;
39102;SDS011;24847;48.218;16.414;2023-12-20T20:13:49;3.25;;;1.58;;
39102;SDS011;24847;48.218;16.414;2023-12-20T20:18:56;2.60;;;1.40;;
39102;SDS011;24847;48.218;16.414;2023-12-20T20:24:06;2.97;;;1.80;;
39102;SDS011;24847;48.218;16.414;2023-12-20T20:29:11;2.22;;;1.50;;
39102;SDS011;24847;48.218;16.414;2023-12-20T20:34:16;2.90;;;1.50;;
39102;SDS011;24847;48.218;16.414;2023-12-20T20:39:23;1.88;;;1.30;;
39102;SDS011;24847;48.218;16.414;2023-12-20T20:44:27;2.78;;;1.60;;
39102;SDS011;24847;48.218;16.414;2023-12-20T20:49:32;2.67;;;1.40;;
39102;SDS011;24847;48.218;16.414;2023-12-20T20:54:38;2.47;;;1.70;;
39102;SDS011;24847;48.218;16.414;2023-12-20T20:59:43;2.40;;;1.70;;
39102;SDS011;24847;48.218;16.414;2023-12-20T21:04:47;2.08;;;1.60;;
39102;SDS011;24847;48.218;16.414;2023-12-20T21:09:51;3.40;;;1.75;;
39102;SDS011;24847;48.218;16.414;2023-12-20T21:14:55;1.90;;;1.27;;
39102;SDS011;24847;48.218;16.414;2023-12-20T21:19:57;2.30;;;1.30;;
39102;SDS011;24847;48.218;16.414;2023-12-20T21:25:01;3.30;;;1.20;;
39102;SDS011;24847;48.218;16.414;2023-12-20T21:30:04;2.40;;;1.55;;
39102;SDS011;24847;48.218;16.414;2023-12-20T21:35:09;1.80;;;1.25;;
39102;SDS011;24847;48.218;16.414;2023-12-20T21:40:13;3.58;;;1.92;;
39102;SDS011;24847;48.218;16.414;2023-12-20T21:45:16;3.85;;;1.98;;
39102;SDS011;24847;48.218;16.414;2023-12-20T21:50:19;3.95;;;2.00;;
39102;SDS011;24847;48.218;16.414;2023-12-20T21:55:23;2.95;;;1.70;;
39102;SDS011;24847;48.218;16.414;2023-12-20T22:00:26;4.53;;;1.77;;
39102;SDS011;24847;48.218;16.414;2023-12-20T22:05:28;2.67;;;1.58;;
39102;SDS011;24847;48.218;16.414;2023-12-20T22:10:32;2.83;;;1.67;;
39102;SDS011;24847;48.218;16.414;2023-12-20T22:15:34;2.70;;;1.40;;
39102;SDS011;24847;48.218;16.414;2023-12-20T22:20:36;3.33;;;1.08;;
39102;SDS011;24847;48.218;16.414;2023-12-20T22:25:41;1.60;;;0.90;;
39102;SDS011;24847;48.218;16.414;2023-12-20T22:30:43;2.85;;;1.50;;
39102;SDS011;24847;48.218;16.414;2023-12-20T22:35:45;2.72;;;1.70;;
39102;SDS011;24847;48.218;16.414;2023-12-20T22:40:49;3.42;;;1.92;;
39102;SDS011;24847;48.218;16.414;2023-12-20T22:45:51;4.15;;;1.50;;
39102;SDS011;24847;48.218;16.414;2023-12-20T22:50:54;4.03;;;1.75;;
39102;SDS011;24847;48.218;16.414;2023-12-20T22:55:58;2.97;;;1.40;;
39102;SDS011;24847;48.218;16.414;2023-12-20T23:01:00;3.47;;;1.98;;
39102;SDS011;24847;48.218;16.414;2023-12-20T23:06:02;6.20;;;2.40;;
39102;SDS011;24847;48.218;16.414;2023-12-20T23:11:06;4.00;;;2.17;;
39102;SDS011;24847;48.218;16.414;2023-12-20T23:16:09;2.88;;;1.80;;
39102;SDS011;24847;48.218;16.414;2023-12-20T23:21:14;5.60;;;2.63;;
39102;SDS011;24847;48.218;16.414;2023-12-20T23:26:17;2.42;;;1.33;;
39102;SDS011;24847;48.218;16.414;2023-12-20T23:31:22;2.95;;;2.25;;
39102;SDS011;24847;48.218;16.414;2023-12-20T23:36:26;4.15;;;2.20;;
39102;SDS011;24847;48.218;16.414;2023-12-20T23:41:30;2.78;;;1.25;;
39102;SDS011;24847;48.218;16.414;2023-12-20T23:46:32;5.45;;;2.42;;
39102;SDS011;24847;48.218;16.414;2023-12-20T23:51:34;3.33;;;1.88;;
39102;SDS011;24847;48.218;16.414;2023-12-20T23:56:38;3.45;;;2.28;;
